sensor_id;sensor_type;location;lat;lon;timestamp;P1;durP1;ratioP1;P2;durP2;ratioP2
74593;SDS011;63097;51.872;4.460;2023-07-31T00:00:05;53.70;;;6.88;;
74593;SDS011;63097;51.872;4.460;2023-07-31T00:02:31;46.58;;;7.53;;
74593;SDS011;63097;51.872;4.460;2023-07-31T00:04:56;49.72;;;8.40;;
74593;SDS011;63097;51.872;4.460;2023-07-31T00:07:21;57.50;;;8.40;;
74593;SDS011;63097;51.872;4.460;2023-07-31T00:09:47;61.35;;;8.05;;
74593;SDS011;63097;51.872;4.460;2023-07-31T00:12:12;53.17;;;8.15;;
74593;SDS011;63097;51.872;4.460;2023-07-31T00:14:37;64.00;;;8.80;;
74593;SDS011;63097;51.872;4.460;2023-07-31T00:17:03;54.35;;;8.57;;
74593;SDS011;63097;51.872;4.460;2023-07-31T00:19:28;46.45;;;7.55;;
74593;SDS011;63097;51.872;4.460;2023-07-31T00:21:53;48.03;;;8.10;;
74593;SDS011;63097;51.872;4.460;2023-07-31T00:24:19;51.22;;;9.07;;
74593;SDS011;63097;51.872;4.460;2023-07-31T00:26:44;53.72;;;8.40;;
74593;SDS011;63097;51.872;4.460;2023-07-31T00:29:09;39.58;;;6.90;;
74593;SDS011;63097;51.872;4.460;2023-07-31T00:31:34;59.55;;;9.73;;
74593;SDS011;63097;51.872;4.460;2023-07-31T00:34:00;61.55;;;9.10;;
74593;SDS011;63097;51.872;4.460;2023-07-31T00:36:25;55.25;;;9.77;;
74593;SDS011;63097;51.872;4.460;2023-07-31T00:38:50;64.35;;;10.00;;
74593;SDS011;63097;51.872;4.460;2023-07-31T00:41:16;63.38;;;9.13;;
74593;SDS011;63097;51.872;4.460;2023-07-31T00:43:41;37.17;;;6.60;;
74593;SDS011;63097;51.872;4.460;2023-07-31T00:46:06;32.85;;;5.95;;
74593;SDS011;63097;51.872;4.460;2023-07-31T00:48:32;35.65;;;6.63;;
74593;SDS011;63097;51.872;4.460;2023-07-31T00:50:57;27.45;;;5.50;;
74593;SDS011;63097;51.872;4.460;2023-07-31T00:53:23;30.67;;;5.55;;
74593;SDS011;63097;51.872;4.460;2023-07-31T00:55:49;25.48;;;5.88;;
74593;SDS011;63097;51.872;4.460;2023-07-31T00:58:14;16.00;;;4.03;;
74593;SDS011;63097;51.872;4.460;2023-07-31T01:00:39;18.73;;;3.42;;
74593;SDS011;63097;51.872;4.460;2023-07-31T01:03:05;20.48;;;4.30;;
74593;SDS011;63097;51.872;4.460;2023-07-31T01:05:39;23.55;;;5.30;;
74593;SDS011;63097;51.872;4.460;2023-07-31T01:08:33;37.92;;;6.65;;
74593;SDS011;63097;51.872;4.460;2023-07-31T01:11:25;47.28;;;7.68;;
74593;SDS011;63097;51.872;4.460;2023-07-31T01:13:54;35.92;;;7.25;;
74593;SDS011;63097;51.872;4.460;2023-07-31T01:16:20;52.13;;;8.07;;
74593;SDS011;63097;51.872;4.460;2023-07-31T01:18:45;57.03;;;8.80;;
74593;SDS011;63097;51.872;4.460;2023-07-31T01:27:04;42.30;;;6.90;;
74593;SDS011;63097;51.872;4.460;2023-07-31T01:29:50;52.15;;;7.60;;
74593;SDS011;63097;51.872;4.460;2023-07-31T01:32:21;44.00;;;7.18;;
74593;SDS011;63097;51.872;4.460;2023-07-31T01:34:47;53.72;;;8.00;;
74593;SDS011;63097;51.872;4.460;2023-07-31T01:37:13;49.15;;;7.75;;
74593;SDS011;63097;51.872;4.460;2023-07-31T01:39:39;32.38;;;6.90;;
74593;SDS011;63097;51.872;4.460;2023-07-31T01:42:04;41.63;;;7.63;;
74593;SDS011;63097;51.872;4.460;2023-07-31T01:44:29;44.60;;;6.82;;
74593;SDS011;63097;51.872;4.460;2023-07-31T01:46:55;40.72;;;7.28;;
74593;SDS011;63097;51.872;4.460;2023-07-31T01:49:20;52.35;;;8.25;;
74593;SDS011;63097;51.872;4.460;2023-07-31T01:51:45;50.80;;;8.27;;
74593;SDS011;63097;51.872;4.460;2023-07-31T01:54:11;51.10;;;7.90;;
74593;SDS011;63097;51.872;4.460;2023-07-31T01:56:36;51.25;;;8.25;;
74593;SDS011;63097;51.872;4.460;2023-07-31T01:59:01;49.97;;;7.80;;
74593;SDS011;63097;51.872;4.460;2023-07-31T02:01:26;48.42;;;8.55;;
74593;SDS011;63097;51.872;4.460;2023-07-31T02:03:52;56.65;;;8.50;;
74593;SDS011;63097;51.872;4.460;2023-07-31T02:06:17;55.42;;;9.02;;
74593;SDS011;63097;51.872;4.460;2023-07-31T02:08:42;53.30;;;7.55;;
74593;SDS011;63097;51.872;4.460;2023-07-31T02:11:08;51.90;;;7.68;;
74593;SDS011;63097;51.872;4.460;2023-07-31T02:13:33;36.75;;;7.35;;
74593;SDS011;63097;51.872;4.460;2023-07-31T02:15:58;46.08;;;6.72;;
74593;SDS011;63097;51.872;4.460;2023-07-31T02:18:23;43.63;;;7.40;;
74593;SDS011;63097;51.872;4.460;2023-07-31T02:20:49;51.00;;;8.57;;
74593;SDS011;63097;51.872;4.460;2023-07-31T02:23:15;33.40;;;7.72;;
74593;SDS011;63097;51.872;4.460;2023-07-31T02:25:41;46.80;;;7.32;;
74593;SDS011;63097;51.872;4.460;2023-07-31T02:28:06;35.17;;;6.00;;
74593;SDS011;63097;51.872;4.460;2023-07-31T02:30:31;41.70;;;7.25;;
74593;SDS011;63097;51.872;4.460;2023-07-31T02:32:57;41.20;;;7.03;;
74593;SDS011;63097;51.872;4.460;2023-07-31T02:35:22;31.33;;;6.30;;
74593;SDS011;63097;51.872;4.460;2023-07-31T02:37:47;40.65;;;7.13;;
74593;SDS011;63097;51.872;4.460;2023-07-31T02:40:13;40.05;;;6.65;;
74593;SDS011;63097;51.872;4.460;2023-07-31T02:42:38;35.38;;;6.57;;
74593;SDS011;63097;51.872;4.460;2023-07-31T02:45:03;34.10;;;5.97;;
74593;SDS011;63097;51.872;4.460;2023-07-31T02:47:29;34.72;;;7.57;;
74593;SDS011;63097;51.872;4.460;2023-07-31T02:49:54;41.75;;;6.72;;
74593;SDS011;63097;51.872;4.460;2023-07-31T02:52:20;38.72;;;6.25;;
74593;SDS011;63097;51.872;4.460;2023-07-31T02:54:45;39.80;;;5.85;;
74593;SDS011;63097;51.872;4.460;2023-07-31T02:57:10;38.42;;;7.22;;
74593;SDS011;63097;51.872;4.460;2023-07-31T02:59:35;33.63;;;6.60;;
74593;SDS011;63097;51.872;4.460;2023-07-31T03:02:01;42.47;;;7.13;;
74593;SDS011;63097;51.872;4.460;2023-07-31T03:04:26;33.00;;;6.38;;
74593;SDS011;63097;51.872;4.460;2023-07-31T03:06:51;43.25;;;6.55;;
74593;SDS011;63097;51.872;4.460;2023-07-31T03:09:17;41.55;;;6.75;;
74593;SDS011;63097;51.872;4.460;2023-07-31T03:11:42;35.00;;;6.47;;
74593;SDS011;63097;51.872;4.460;2023-07-31T03:14:07;44.60;;;7.35;;
74593;SDS011;63097;51.872;4.460;2023-07-31T03:16:32;42.65;;;7.75;;
74593;SDS011;63097;51.872;4.460;2023-07-31T03:18:58;40.78;;;7.25;;
74593;SDS011;63097;51.872;4.460;2023-07-31T03:21:23;35.45;;;6.95;;
74593;SDS011;63097;51.872;4.460;2023-07-31T03:23:48;35.47;;;6.28;;
74593;SDS011;63097;51.872;4.460;2023-07-31T03:26:13;50.33;;;7.55;;
74593;SDS011;63097;51.872;4.460;2023-07-31T03:28:39;42.13;;;8.20;;
74593;SDS011;63097;51.872;4.460;2023-07-31T03:31:04;40.08;;;7.45;;
74593;SDS011;63097;51.872;4.460;2023-07-31T03:33:29;36.70;;;7.30;;
74593;SDS011;63097;51.872;4.460;2023-07-31T03:35:55;31.38;;;7.05;;
74593;SDS011;63097;51.872;4.460;2023-07-31T03:38:20;32.17;;;7.80;;
74593;SDS011;63097;51.872;4.460;2023-07-31T03:40:45;35.05;;;7.30;;
74593;SDS011;63097;51.872;4.460;2023-07-31T03:43:11;38.20;;;9.18;;
74593;SDS011;63097;51.872;4.460;2023-07-31T03:45:36;40.03;;;6.25;;
74593;SDS011;63097;51.872;4.460;2023-07-31T03:48:02;39.10;;;9.63;;
74593;SDS011;63097;51.872;4.460;2023-07-31T03:50:28;33.65;;;7.35;;
74593;SDS011;63097;51.872;4.460;2023-07-31T03:52:53;35.67;;;7.15;;
74593;SDS011;63097;51.872;4.460;2023-07-31T03:55:19;29.10;;;7.75;;
74593;SDS011;63097;51.872;4.460;2023-07-31T03:57:44;42.58;;;8.32;;
74593;SDS011;63097;51.872;4.460;2023-07-31T04:00:09;29.88;;;7.38;;
74593;SDS011;63097;51.872;4.460;2023-07-31T04:02:35;27.55;;;7.53;;
74593;SDS011;63097;51.872;4.460;2023-07-31T04:05:00;30.17;;;7.53;;
74593;SDS011;63097;51.872;4.460;2023-07-31T04:07:26;29.65;;;6.50;;
74593;SDS011;63097;51.872;4.460;2023-07-31T04:09:51;31.23;;;6.63;;
74593;SDS011;63097;51.872;4.460;2023-07-31T04:12:16;29.55;;;6.88;;
74593;SDS011;63097;51.872;4.460;2023-07-31T04:14:41;31.63;;;5.60;;
74593;SDS011;63097;51.872;4.460;2023-07-31T04:17:07;24.85;;;6.80;;
74593;SDS011;63097;51.872;4.460;2023-07-31T04:19:32;25.25;;;6.28;;
74593;SDS011;63097;51.872;4.460;2023-07-31T04:21:57;17.83;;;5.40;;
74593;SDS011;63097;51.872;4.460;2023-07-31T04:24:23;29.42;;;6.15;;
74593;SDS011;63097;51.872;4.460;2023-07-31T04:26:48;26.23;;;5.88;;
74593;SDS011;63097;51.872;4.460;2023-07-31T04:29:13;22.33;;;6.53;;
74593;SDS011;63097;51.872;4.460;2023-07-31T04:31:38;24.58;;;6.05;;
74593;SDS011;63097;51.872;4.460;2023-07-31T04:34:04;21.27;;;6.07;;
74593;SDS011;63097;51.872;4.460;2023-07-31T04:36:29;23.30;;;6.22;;
74593;SDS011;63097;51.872;4.460;2023-07-31T04:38:54;26.13;;;6.60;;
74593;SDS011;63097;51.872;4.460;2023-07-31T04:41:20;25.02;;;5.15;;
74593;SDS011;63097;51.872;4.460;2023-07-31T04:43:45;19.92;;;5.40;;
74593;SDS011;63097;51.872;4.460;2023-07-31T04:46:10;31.95;;;5.65;;
74593;SDS011;63097;51.872;4.460;2023-07-31T04:48:35;28.23;;;5.95;;
74593;SDS011;63097;51.872;4.460;2023-07-31T04:51:01;22.95;;;5.85;;
74593;SDS011;63097;51.872;4.460;2023-07-31T04:53:26;24.85;;;6.40;;
74593;SDS011;63097;51.872;4.460;2023-07-31T04:55:51;25.85;;;6.00;;
74593;SDS011;63097;51.872;4.460;2023-07-31T04:58:17;25.92;;;5.50;;
74593;SDS011;63097;51.872;4.460;2023-07-31T05:00:42;28.92;;;5.50;;
74593;SDS011;63097;51.872;4.460;2023-07-31T05:03:07;26.65;;;5.00;;
74593;SDS011;63097;51.872;4.460;2023-07-31T05:05:32;19.20;;;5.18;;
74593;SDS011;63097;51.872;4.460;2023-07-31T05:07:58;19.42;;;4.90;;
74593;SDS011;63097;51.872;4.460;2023-07-31T05:10:23;25.00;;;5.18;;
74593;SDS011;63097;51.872;4.460;2023-07-31T05:12:48;25.08;;;5.60;;
74593;SDS011;63097;51.872;4.460;2023-07-31T05:15:13;14.40;;;4.25;;
74593;SDS011;63097;51.872;4.460;2023-07-31T05:17:39;14.40;;;3.83;;
74593;SDS011;63097;51.872;4.460;2023-07-31T05:20:04;22.17;;;4.57;;
74593;SDS011;63097;51.872;4.460;2023-07-31T05:22:30;21.08;;;4.07;;
74593;SDS011;63097;51.872;4.460;2023-07-31T05:24:55;7.85;;;3.15;;
74593;SDS011;63097;51.872;4.460;2023-07-31T05:27:21;16.52;;;3.72;;
74593;SDS011;63097;51.872;4.460;2023-07-31T05:29:46;15.95;;;4.68;;
74593;SDS011;63097;51.872;4.460;2023-07-31T05:32:11;11.93;;;4.00;;
74593;SDS011;63097;51.872;4.460;2023-07-31T05:34:37;19.42;;;3.97;;
74593;SDS011;63097;51.872;4.460;2023-07-31T05:37:02;17.45;;;4.15;;
74593;SDS011;63097;51.872;4.460;2023-07-31T05:39:27;14.20;;;4.05;;
74593;SDS011;63097;51.872;4.460;2023-07-31T05:41:52;17.05;;;4.25;;
74593;SDS011;63097;51.872;4.460;2023-07-31T05:44:18;11.82;;;4.47;;
74593;SDS011;63097;51.872;4.460;2023-07-31T05:46:43;18.67;;;4.78;;
74593;SDS011;63097;51.872;4.460;2023-07-31T05:49:08;19.02;;;4.70;;
74593;SDS011;63097;51.872;4.460;2023-07-31T05:51:34;18.27;;;4.25;;
74593;SDS011;63097;51.872;4.460;2023-07-31T05:53:59;20.75;;;5.00;;
74593;SDS011;63097;51.872;4.460;2023-07-31T05:56:24;15.07;;;4.22;;
74593;SDS011;63097;51.872;4.460;2023-07-31T05:58:49;14.82;;;4.55;;
74593;SDS011;63097;51.872;4.460;2023-07-31T06:01:15;19.42;;;5.35;;
74593;SDS011;63097;51.872;4.460;2023-07-31T06:03:41;14.02;;;4.47;;
74593;SDS011;63097;51.872;4.460;2023-07-31T06:06:06;18.65;;;4.95;;
74593;SDS011;63097;51.872;4.460;2023-07-31T06:08:32;14.32;;;4.18;;
74593;SDS011;63097;51.872;4.460;2023-07-31T06:10:57;16.88;;;4.35;;
74593;SDS011;63097;51.872;4.460;2023-07-31T06:13:22;12.25;;;4.03;;
74593;SDS011;63097;51.872;4.460;2023-07-31T06:15:47;14.23;;;4.78;;
74593;SDS011;63097;51.872;4.460;2023-07-31T06:18:13;16.15;;;3.95;;
74593;SDS011;63097;51.872;4.460;2023-07-31T06:20:38;11.73;;;3.88;;
74593;SDS011;63097;51.872;4.460;2023-07-31T06:23:03;11.82;;;3.83;;
74593;SDS011;63097;51.872;4.460;2023-07-31T06:25:29;16.17;;;3.35;;
74593;SDS011;63097;51.872;4.460;2023-07-31T06:27:54;9.63;;;3.50;;
74593;SDS011;63097;51.872;4.460;2023-07-31T06:30:19;5.88;;;2.95;;
74593;SDS011;63097;51.872;4.460;2023-07-31T06:32:45;14.15;;;3.58;;
74593;SDS011;63097;51.872;4.460;2023-07-31T06:35:10;8.40;;;2.95;;
74593;SDS011;63097;51.872;4.460;2023-07-31T06:37:35;7.60;;;3.22;;
74593;SDS011;63097;51.872;4.460;2023-07-31T06:40:00;11.98;;;3.20;;
74593;SDS011;63097;51.872;4.460;2023-07-31T06:42:26;11.20;;;3.10;;
74593;SDS011;63097;51.872;4.460;2023-07-31T06:44:51;10.98;;;3.47;;
74593;SDS011;63097;51.872;4.460;2023-07-31T06:47:16;8.88;;;2.80;;
74593;SDS011;63097;51.872;4.460;2023-07-31T06:49:41;7.88;;;2.50;;
74593;SDS011;63097;51.872;4.460;2023-07-31T06:52:07;4.93;;;3.10;;
74593;SDS011;63097;51.872;4.460;2023-07-31T06:54:32;12.88;;;3.22;;
74593;SDS011;63097;51.872;4.460;2023-07-31T06:56:57;7.32;;;2.95;;
74593;SDS011;63097;51.872;4.460;2023-07-31T06:59:23;6.82;;;2.75;;
74593;SDS011;63097;51.872;4.460;2023-07-31T07:01:48;4.07;;;2.72;;
74593;SDS011;63097;51.872;4.460;2023-07-31T07:04:13;5.75;;;2.70;;
74593;SDS011;63097;51.872;4.460;2023-07-31T07:06:39;6.63;;;2.58;;
74593;SDS011;63097;51.872;4.460;2023-07-31T07:09:04;6.15;;;2.28;;
74593;SDS011;63097;51.872;4.460;2023-07-31T07:11:30;6.38;;;2.17;;
74593;SDS011;63097;51.872;4.460;2023-07-31T07:13:55;4.53;;;2.28;;
74593;SDS011;63097;51.872;4.460;2023-07-31T07:16:21;4.50;;;1.55;;
74593;SDS011;63097;51.872;4.460;2023-07-31T07:18:46;2.75;;;1.75;;
74593;SDS011;63097;51.872;4.460;2023-07-31T07:21:11;3.92;;;1.38;;
74593;SDS011;63097;51.872;4.460;2023-07-31T07:23:37;4.85;;;1.88;;
74593;SDS011;63097;51.872;4.460;2023-07-31T07:26:02;3.05;;;1.48;;
74593;SDS011;63097;51.872;4.460;2023-07-31T07:28:27;2.75;;;1.60;;
74593;SDS011;63097;51.872;4.460;2023-07-31T07:30:52;9.30;;;2.05;;
74593;SDS011;63097;51.872;4.460;2023-07-31T07:33:18;5.00;;;1.85;;
74593;SDS011;63097;51.872;4.460;2023-07-31T07:35:43;6.55;;;2.10;;
74593;SDS011;63097;51.872;4.460;2023-07-31T07:38:08;3.53;;;1.70;;
74593;SDS011;63097;51.872;4.460;2023-07-31T07:40:38;6.57;;;1.77;;
74593;SDS011;63097;51.872;4.460;2023-07-31T07:43:03;3.70;;;1.85;;
74593;SDS011;63097;51.872;4.460;2023-07-31T07:45:29;4.32;;;1.75;;
74593;SDS011;63097;51.872;4.460;2023-07-31T07:47:54;5.00;;;1.60;;
74593;SDS011;63097;51.872;4.460;2023-07-31T07:50:19;5.35;;;1.60;;
74593;SDS011;63097;51.872;4.460;2023-07-31T07:52:45;3.08;;;1.40;;
74593;SDS011;63097;51.872;4.460;2023-07-31T07:55:10;5.88;;;1.50;;
74593;SDS011;63097;51.872;4.460;2023-07-31T07:57:35;2.88;;;1.17;;
74593;SDS011;63097;51.872;4.460;2023-07-31T08:00:00;3.95;;;1.08;;
74593;SDS011;63097;51.872;4.460;2023-07-31T08:02:26;4.38;;;1.17;;
74593;SDS011;63097;51.872;4.460;2023-07-31T08:04:51;2.17;;;1.05;;
74593;SDS011;63097;51.872;4.460;2023-07-31T08:07:16;3.08;;;1.10;;
74593;SDS011;63097;51.872;4.460;2023-07-31T08:09:41;4.68;;;1.40;;
74593;SDS011;63097;51.872;4.460;2023-07-31T08:12:07;5.47;;;1.02;;
74593;SDS011;63097;51.872;4.460;2023-07-31T08:14:32;3.80;;;0.73;;
74593;SDS011;63097;51.872;4.460;2023-07-31T08:16:58;3.90;;;0.70;;
74593;SDS011;63097;51.872;4.460;2023-07-31T08:19:23;6.53;;;1.02;;
74593;SDS011;63097;51.872;4.460;2023-07-31T08:21:48;3.28;;;1.00;;
74593;SDS011;63097;51.872;4.460;2023-07-31T08:24:13;4.85;;;0.80;;
74593;SDS011;63097;51.872;4.460;2023-07-31T08:26:39;3.65;;;1.10;;
74593;SDS011;63097;51.872;4.460;2023-07-31T08:29:04;2.17;;;0.77;;
74593;SDS011;63097;51.872;4.460;2023-07-31T08:31:29;4.63;;;1.05;;
74593;SDS011;63097;51.872;4.460;2023-07-31T08:33:55;3.00;;;1.20;;
74593;SDS011;63097;51.872;4.460;2023-07-31T08:36:21;8.07;;;0.95;;
74593;SDS011;63097;51.872;4.460;2023-07-31T08:38:46;6.82;;;0.80;;
74593;SDS011;63097;51.872;4.460;2023-07-31T08:41:12;2.80;;;0.90;;
74593;SDS011;63097;51.872;4.460;2023-07-31T08:43:37;2.97;;;0.90;;
74593;SDS011;63097;51.872;4.460;2023-07-31T08:46:03;2.17;;;1.10;;
74593;SDS011;63097;51.872;4.460;2023-07-31T08:48:29;1.20;;;0.90;;
74593;SDS011;63097;51.872;4.460;2023-07-31T08:50:56;6.78;;;1.35;;
74593;SDS011;63097;51.872;4.460;2023-07-31T08:53:22;3.45;;;1.17;;
74593;SDS011;63097;51.872;4.460;2023-07-31T08:55:47;1.67;;;1.00;;
74593;SDS011;63097;51.872;4.460;2023-07-31T08:58:13;2.70;;;1.17;;
74593;SDS011;63097;51.872;4.460;2023-07-31T09:00:40;4.35;;;1.35;;
74593;SDS011;63097;51.872;4.460;2023-07-31T09:03:09;2.13;;;1.30;;
74593;SDS011;63097;51.872;4.460;2023-07-31T09:05:39;6.22;;;1.60;;
74593;SDS011;63097;51.872;4.460;2023-07-31T09:08:08;5.30;;;1.60;;
74593;SDS011;63097;51.872;4.460;2023-07-31T09:10:34;4.18;;;1.75;;
74593;SDS011;63097;51.872;4.460;2023-07-31T09:12:59;5.20;;;1.65;;
74593;SDS011;63097;51.872;4.460;2023-07-31T09:15:25;5.38;;;1.83;;
74593;SDS011;63097;51.872;4.460;2023-07-31T09:17:59;6.20;;;1.70;;
74593;SDS011;63097;51.872;4.460;2023-07-31T09:20:25;4.20;;;1.67;;
74593;SDS011;63097;51.872;4.460;2023-07-31T09:22:50;5.10;;;2.28;;
74593;SDS011;63097;51.872;4.460;2023-07-31T09:25:20;6.72;;;1.95;;
74593;SDS011;63097;51.872;4.460;2023-07-31T09:30:16;8.13;;;2.30;;
74593;SDS011;63097;51.872;4.460;2023-07-31T09:32:43;4.25;;;1.98;;
74593;SDS011;63097;51.872;4.460;2023-07-31T09:35:28;2.22;;;2.03;;
74593;SDS011;63097;51.872;4.460;2023-07-31T09:37:59;3.20;;;1.85;;
74593;SDS011;63097;51.872;4.460;2023-07-31T09:43:02;3.85;;;1.50;;
74593;SDS011;63097;51.872;4.460;2023-07-31T09:45:33;4.15;;;2.17;;
74593;SDS011;63097;51.872;4.460;2023-07-31T09:48:00;5.55;;;1.70;;
74593;SDS011;63097;51.872;4.460;2023-07-31T09:50:25;3.42;;;1.70;;
74593;SDS011;63097;51.872;4.460;2023-07-31T09:52:51;4.22;;;1.83;;
74593;SDS011;63097;51.872;4.460;2023-07-31T09:55:17;7.03;;;2.03;;
74593;SDS011;63097;51.872;4.460;2023-07-31T09:57:46;5.28;;;1.50;;
74593;SDS011;63097;51.872;4.460;2023-07-31T10:00:14;2.80;;;1.20;;
74593;SDS011;63097;51.872;4.460;2023-07-31T10:02:41;3.63;;;1.73;;
74593;SDS011;63097;51.872;4.460;2023-07-31T10:05:10;1.52;;;1.30;;
74593;SDS011;63097;51.872;4.460;2023-07-31T10:07:38;8.98;;;2.17;;
74593;SDS011;63097;51.872;4.460;2023-07-31T10:10:04;2.75;;;1.40;;
74593;SDS011;63097;51.872;4.460;2023-07-31T10:12:32;3.70;;;1.40;;
74593;SDS011;63097;51.872;4.460;2023-07-31T10:14:58;2.90;;;1.50;;
74593;SDS011;63097;51.872;4.460;2023-07-31T10:17:24;4.80;;;1.70;;
74593;SDS011;63097;51.872;4.460;2023-07-31T10:19:51;7.85;;;2.10;;
74593;SDS011;63097;51.872;4.460;2023-07-31T10:22:20;4.13;;;2.30;;
74593;SDS011;63097;51.872;4.460;2023-07-31T10:24:46;6.40;;;2.00;;
74593;SDS011;63097;51.872;4.460;2023-07-31T10:27:12;11.00;;;2.28;;
74593;SDS011;63097;51.872;4.460;2023-07-31T10:29:41;8.20;;;2.60;;
74593;SDS011;63097;51.872;4.460;2023-07-31T10:32:09;6.88;;;2.20;;
74593;SDS011;63097;51.872;4.460;2023-07-31T10:34:36;4.68;;;2.10;;
74593;SDS011;63097;51.872;4.460;2023-07-31T10:42:35;7.25;;;2.42;;
74593;SDS011;63097;51.872;4.460;2023-07-31T10:45:06;10.82;;;3.25;;
74593;SDS011;63097;51.872;4.460;2023-07-31T10:47:45;12.40;;;4.15;;
74593;SDS011;63097;51.872;4.460;2023-07-31T10:50:17;14.65;;;4.80;;
74593;SDS011;63097;51.872;4.460;2023-07-31T10:52:48;9.27;;;4.68;;
74593;SDS011;63097;51.872;4.460;2023-07-31T10:57:49;14.45;;;5.00;;
74593;SDS011;63097;51.872;4.460;2023-07-31T11:00:21;12.90;;;5.07;;
74593;SDS011;63097;51.872;4.460;2023-07-31T11:03:04;14.55;;;5.80;;
74593;SDS011;63097;51.872;4.460;2023-07-31T11:08:29;17.65;;;4.10;;
74593;SDS011;63097;51.872;4.460;2023-07-31T11:13:31;11.02;;;4.90;;
74593;SDS011;63097;51.872;4.460;2023-07-31T11:15:57;8.70;;;4.68;;
74593;SDS011;63097;51.872;4.460;2023-07-31T11:18:23;8.65;;;4.78;;
74593;SDS011;63097;51.872;4.460;2023-07-31T11:20:48;7.43;;;3.78;;
74593;SDS011;63097;51.872;4.460;2023-07-31T11:23:15;6.18;;;3.75;;
74593;SDS011;63097;51.872;4.460;2023-07-31T11:25:41;6.10;;;3.92;;
74593;SDS011;63097;51.872;4.460;2023-07-31T11:28:08;6.70;;;3.65;;
74593;SDS011;63097;51.872;4.460;2023-07-31T11:30:34;9.35;;;3.88;;
74593;SDS011;63097;51.872;4.460;2023-07-31T11:33:04;10.00;;;3.50;;
74593;SDS011;63097;51.872;4.460;2023-07-31T11:35:34;9.98;;;3.33;;
74593;SDS011;63097;51.872;4.460;2023-07-31T11:38:01;5.47;;;2.70;;
74593;SDS011;63097;51.872;4.460;2023-07-31T11:40:27;10.43;;;3.47;;
74593;SDS011;63097;51.872;4.460;2023-07-31T11:42:53;7.32;;;3.30;;
74593;SDS011;63097;51.872;4.460;2023-07-31T11:45:19;12.80;;;2.75;;
74593;SDS011;63097;51.872;4.460;2023-07-31T11:47:44;9.88;;;3.38;;
74593;SDS011;63097;51.872;4.460;2023-07-31T11:50:10;5.50;;;2.97;;
74593;SDS011;63097;51.872;4.460;2023-07-31T11:52:43;8.73;;;2.80;;
74593;SDS011;63097;51.872;4.460;2023-07-31T11:55:10;7.05;;;2.40;;
74593;SDS011;63097;51.872;4.460;2023-07-31T11:57:37;7.45;;;2.10;;
74593;SDS011;63097;51.872;4.460;2023-07-31T12:00:04;13.50;;;2.45;;
74593;SDS011;63097;51.872;4.460;2023-07-31T12:02:32;4.18;;;2.00;;
74593;SDS011;63097;51.872;4.460;2023-07-31T12:04:57;6.43;;;1.90;;
74593;SDS011;63097;51.872;4.460;2023-07-31T12:07:23;4.35;;;1.95;;
74593;SDS011;63097;51.872;4.460;2023-07-31T12:09:52;7.38;;;1.95;;
74593;SDS011;63097;51.872;4.460;2023-07-31T12:12:21;5.07;;;2.22;;
74593;SDS011;63097;51.872;4.460;2023-07-31T12:14:48;4.82;;;2.10;;
74593;SDS011;63097;51.872;4.460;2023-07-31T12:17:13;4.25;;;2.10;;
74593;SDS011;63097;51.872;4.460;2023-07-31T12:19:39;10.93;;;2.67;;
74593;SDS011;63097;51.872;4.460;2023-07-31T12:22:14;7.35;;;2.13;;
74593;SDS011;63097;51.872;4.460;2023-07-31T12:24:41;7.57;;;2.47;;
74593;SDS011;63097;51.872;4.460;2023-07-31T12:27:11;11.10;;;2.05;;
74593;SDS011;63097;51.872;4.460;2023-07-31T12:29:37;5.10;;;2.60;;
74593;SDS011;63097;51.872;4.460;2023-07-31T12:32:03;4.82;;;1.90;;
74593;SDS011;63097;51.872;4.460;2023-07-31T12:34:29;2.60;;;1.42;;
74593;SDS011;63097;51.872;4.460;2023-07-31T12:36:54;2.47;;;1.40;;
74593;SDS011;63097;51.872;4.460;2023-07-31T12:39:19;2.08;;;1.55;;
74593;SDS011;63097;51.872;4.460;2023-07-31T12:41:45;2.55;;;1.40;;
74593;SDS011;63097;51.872;4.460;2023-07-31T12:44:10;4.00;;;1.52;;
74593;SDS011;63097;51.872;4.460;2023-07-31T12:46:35;2.65;;;1.50;;
74593;SDS011;63097;51.872;4.460;2023-07-31T12:49:00;4.70;;;1.55;;
74593;SDS011;63097;51.872;4.460;2023-07-31T12:51:26;5.63;;;1.48;;
74593;SDS011;63097;51.872;4.460;2023-07-31T12:53:51;5.50;;;1.20;;
74593;SDS011;63097;51.872;4.460;2023-07-31T12:56:16;6.25;;;1.40;;
74593;SDS011;63097;51.872;4.460;2023-07-31T12:58:42;3.78;;;2.17;;
74593;SDS011;63097;51.872;4.460;2023-07-31T13:01:07;4.88;;;1.70;;
74593;SDS011;63097;51.872;4.460;2023-07-31T13:03:32;1.90;;;1.38;;
74593;SDS011;63097;51.872;4.460;2023-07-31T13:05:58;3.78;;;1.70;;
74593;SDS011;63097;51.872;4.460;2023-07-31T13:08:23;3.85;;;1.67;;
74593;SDS011;63097;51.872;4.460;2023-07-31T13:10:48;1.63;;;1.23;;
74593;SDS011;63097;51.872;4.460;2023-07-31T13:13:13;5.10;;;2.03;;
74593;SDS011;63097;51.872;4.460;2023-07-31T13:15:39;3.70;;;2.75;;
74593;SDS011;63097;51.872;4.460;2023-07-31T13:18:04;3.80;;;2.90;;
74593;SDS011;63097;51.872;4.460;2023-07-31T13:20:29;5.05;;;2.20;;
74593;SDS011;63097;51.872;4.460;2023-07-31T13:22:54;2.70;;;2.15;;
74593;SDS011;63097;51.872;4.460;2023-07-31T13:25:20;3.03;;;1.80;;
74593;SDS011;63097;51.872;4.460;2023-07-31T13:27:45;1.17;;;1.08;;
74593;SDS011;63097;51.872;4.460;2023-07-31T13:30:10;2.17;;;1.65;;
74593;SDS011;63097;51.872;4.460;2023-07-31T13:32:36;11.93;;;2.33;;
74593;SDS011;63097;51.872;4.460;2023-07-31T13:35:01;4.50;;;2.30;;
74593;SDS011;63097;51.872;4.460;2023-07-31T13:37:26;2.85;;;1.77;;
74593;SDS011;63097;51.872;4.460;2023-07-31T13:39:51;3.75;;;1.90;;
74593;SDS011;63097;51.872;4.460;2023-07-31T13:42:17;6.90;;;2.42;;
74593;SDS011;63097;51.872;4.460;2023-07-31T13:44:42;5.53;;;2.10;;
74593;SDS011;63097;51.872;4.460;2023-07-31T13:47:08;7.50;;;2.80;;
74593;SDS011;63097;51.872;4.460;2023-07-31T13:49:33;7.78;;;2.15;;
74593;SDS011;63097;51.872;4.460;2023-07-31T13:52:00;6.70;;;1.77;;
74593;SDS011;63097;51.872;4.460;2023-07-31T13:54:25;3.80;;;2.05;;
74593;SDS011;63097;51.872;4.460;2023-07-31T13:56:50;4.15;;;2.40;;
74593;SDS011;63097;51.872;4.460;2023-07-31T13:59:16;4.93;;;1.90;;
74593;SDS011;63097;51.872;4.460;2023-07-31T14:01:42;4.25;;;1.90;;
74593;SDS011;63097;51.872;4.460;2023-07-31T14:04:08;5.43;;;2.65;;
74593;SDS011;63097;51.872;4.460;2023-07-31T14:06:33;3.30;;;1.75;;
74593;SDS011;63097;51.872;4.460;2023-07-31T14:08:58;6.80;;;3.60;;
74593;SDS011;63097;51.872;4.460;2023-07-31T14:11:24;5.22;;;4.03;;
74593;SDS011;63097;51.872;4.460;2023-07-31T14:13:50;4.95;;;3.50;;
74593;SDS011;63097;51.872;4.460;2023-07-31T14:16:15;8.48;;;4.63;;
74593;SDS011;63097;51.872;4.460;2023-07-31T14:18:41;7.72;;;4.97;;
74593;SDS011;63097;51.872;4.460;2023-07-31T14:21:06;7.63;;;5.10;;
74593;SDS011;63097;51.872;4.460;2023-07-31T14:23:32;6.93;;;3.60;;
74593;SDS011;63097;51.872;4.460;2023-07-31T14:25:59;12.27;;;4.22;;
74593;SDS011;63097;51.872;4.460;2023-07-31T14:28:24;2.08;;;1.90;;
74593;SDS011;63097;51.872;4.460;2023-07-31T14:30:49;4.35;;;1.95;;
74593;SDS011;63097;51.872;4.460;2023-07-31T14:33:15;6.18;;;3.05;;
74593;SDS011;63097;51.872;4.460;2023-07-31T14:35:40;5.18;;;2.40;;
74593;SDS011;63097;51.872;4.460;2023-07-31T14:38:05;6.70;;;2.63;;
74593;SDS011;63097;51.872;4.460;2023-07-31T14:40:31;4.63;;;2.97;;
74593;SDS011;63097;51.872;4.460;2023-07-31T14:42:56;5.75;;;3.40;;
74593;SDS011;63097;51.872;4.460;2023-07-31T14:45:22;4.93;;;3.28;;
74593;SDS011;63097;51.872;4.460;2023-07-31T14:47:47;9.75;;;3.42;;
74593;SDS011;63097;51.872;4.460;2023-07-31T14:50:12;4.90;;;3.13;;
74593;SDS011;63097;51.872;4.460;2023-07-31T14:52:38;4.13;;;2.80;;
74593;SDS011;63097;51.872;4.460;2023-07-31T14:55:03;2.60;;;1.85;;
74593;SDS011;63097;51.872;4.460;2023-07-31T14:57:29;5.50;;;2.92;;